Time;durP1;ratioP1;P1;durP2;ratioP2;P2;SDS_P1;SDS_P2;PMS_P1;PMS_P2;Temp;Humidity;BMP_temperature;BMP_pressure;BME280_temperature;BME280_humidity;BME280_pressure;Samples;Min_cycle;Max_cycle;Signal;HPM_P1;HPM_P2
2022/10/27 00:01:32;;;;;;;3.27;1.23;;;16.70;99.90;;;;;;5055253;28;20184;-82
2022/10/27 00:03:58;;;;;;;2.10;1.00;;;16.60;99.90;;;;;;5053433;28;20698;-81
2022/10/27 00:06:24;;;;;;;4.27;1.40;;;16.60;99.90;;;;;;5055166;28;20730;-81
2022/10/27 00:08:51;;;;;;;3.80;1.40;;;16.60;99.90;;;;;;5055179;28;20219;-81
2022/10/27 00:11:17;;;;;;;7.33;1.23;;;16.60;99.90;;;;;;5054688;28;20165;-81
2022/10/27 00:13:43;;;;;;;4.17;1.43;;;16.60;99.90;;;;;;5053592;28;20943;-81
2022/10/27 00:16:14;;;;;;;3.43;1.30;;;16.60;99.90;;;;;;5037144;28;20577;-81
2022/10/27 00:18:41;;;;;;;2.13;1.10;;;16.60;99.90;;;;;;5054591;28;20579;-81
2022/10/27 00:21:09;;;;;;;3.70;1.60;;;16.60;99.90;;;;;;5036521;28;20579;-80
2022/10/27 00:23:35;;;;;;;3.90;1.30;;;16.60;99.90;;;;;;5036313;28;20615;-80
2022/10/27 00:26:01;;;;;;;2.20;1.10;;;16.60;99.90;;;;;;5054573;28;20742;-80
2022/10/27 00:28:28;;;;;;;5.20;1.20;;;16.60;99.90;;;;;;5053565;28;20574;-80
2022/10/27 00:31:10;;;;;;;2.33;1.30;;;16.60;99.90;;;;;;5041568;28;20590;-80
2022/10/27 00:33:36;;;;;;;4.67;1.33;;;16.50;99.90;;;;;;5054065;28;20668;-80
2022/10/27 00:36:06;;;;;;;3.90;1.70;;;16.50;99.90;;;;;;5054077;28;20563;-81
2022/10/27 00:38:32;;;;;;;3.40;1.20;;;16.50;99.90;;;;;;5036468;28;20196;-80
2022/10/27 00:40:59;;;;;;;2.93;1.10;;;16.50;99.90;;;;;;5054372;28;20617;-81
2022/10/27 00:43:27;;;;;;;4.83;1.60;;;16.50;99.90;;;;;;5036096;28;20619;-81
2022/10/27 00:45:56;;;;;;;2.93;1.10;;;16.50;99.90;;;;;;5036772;28;20578;-81
2022/10/27 00:48:23;;;;;;;2.73;1.43;;;16.50;99.90;;;;;;5053027;28;20626;-81
2022/10/27 00:50:49;;;;;;;2.90;1.10;;;16.50;99.90;;;;;;5036309;28;20568;-81
2022/10/27 00:53:15;;;;;;;2.57;1.20;;;16.50;99.90;;;;;;5052560;28;20597;-81
2022/10/27 00:55:41;;;;;;;5.30;1.10;;;16.50;99.90;;;;;;5036329;28;20165;-81
2022/10/27 00:58:10;;;;;;;2.70;1.40;;;16.50;99.90;;;;;;5052808;28;20622;-81
2022/10/27 01:00:38;;;;;;;3.07;1.20;;;16.40;99.90;;;;;;5054074;28;20662;-81
2022/10/27 01:03:06;;;;;;;4.63;2.00;;;16.40;99.90;;;;;;5035652;28;20641;-81
2022/10/27 01:05:33;;;;;;;3.30;1.30;;;16.40;99.90;;;;;;5053035;28;20606;-81
2022/10/27 01:08:01;;;;;;;5.40;2.50;;;16.40;99.90;;;;;;5039269;28;20619;-81
2022/10/27 01:10:27;;;;;;;2.20;1.30;;;16.40;99.90;;;;;;5053746;28;20567;-82
2022/10/27 01:12:54;;;;;;;3.50;1.27;;;16.40;99.90;;;;;;5053458;28;20607;-82
2022/10/27 01:15:25;;;;;;;3.30;0.90;;;16.40;99.90;;;;;;5053053;28;20574;-81
2022/10/27 01:18:16;;;;;;;2.67;1.50;;;16.40;99.90;;;;;;5035711;28;20575;-82
2022/10/27 01:20:56;;;;;;;2.40;1.03;;;16.40;99.90;;;;;;5053409;28;20636;-81
2022/10/27 01:23:37;;;;;;;3.27;1.60;;;16.40;99.90;;;;;;5018752;28;20639;-81
2022/10/27 01:26:21;;;;;;;3.30;1.33;;;16.40;99.90;;;;;;5053404;28;21220;-81
2022/10/27 01:29:18;;;;;;;4.00;1.10;;;16.40;99.90;;;;;;5035475;28;20571;-81
2022/10/27 01:31:54;;;;;;;2.80;1.10;;;16.40;99.90;;;;;;5034588;28;20572;-76
2022/10/27 01:34:35;;;;;;;2.57;1.70;;;16.40;99.90;;;;;;5052737;28;21099;-77
2022/10/27 01:37:10;;;;;;;2.47;0.97;;;16.40;99.90;;;;;;5035284;28;20572;-76
2022/10/27 01:39:58;;;;;;;3.10;1.07;;;16.40;99.90;;;;;;5053214;28;20571;-76
2022/10/27 01:42:36;;;;;;;2.97;1.00;;;16.40;99.90;;;;;;5038415;28;20676;-76
2022/10/27 01:45:04;;;;;;;3.20;1.00;;;16.40;99.90;;;;;;5039557;28;20591;-75
2022/10/27 01:47:30;;;;;;;3.07;1.70;;;16.40;99.90;;;;;;5052864;28;20611;-76
2022/10/27 01:49:56;;;;;;;2.13;1.10;;;16.40;99.90;;;;;;5053027;28;20583;-76
2022/10/27 01:52:45;;;;;;;2.50;1.17;;;16.40;99.90;;;;;;5034481;28;20608;-76
2022/10/27 01:55:39;;;;;;;3.20;1.00;;;16.40;99.90;;;;;;5052972;28;20691;-76
2022/10/27 01:58:54;;;;;;;2.33;1.30;;;16.30;99.90;;;;;;5052930;28;20921;-76
2022/10/27 02:01:50;;;;;;;2.27;1.00;;;16.30;99.90;;;;;;5017461;28;20686;-76
2022/10/27 02:04:54;;;;;;;4.67;1.00;;;16.30;99.90;;;;;;5052413;28;20641;-77
2022/10/27 02:07:40;;;;;;;3.43;1.20;;;16.30;99.90;;;;;;5051524;28;20976;-77
2022/10/27 02:10:14;;;;;;;6.30;1.20;;;16.20;99.90;;;;;;5052232;28;20571;-76
2022/10/27 02:12:41;;;;;;;4.60;1.00;;;16.20;99.90;;;;;;5034119;28;20600;-76
2022/10/27 02:15:24;;;;;;;4.80;1.77;;;16.20;99.90;;;;;;5052351;28;20599;-76
2022/10/27 02:17:53;;;;;;;4.10;1.27;;;16.10;99.90;;;;;;5052478;28;20556;-76
2022/10/27 02:20:25;;;;;;;6.07;1.37;;;16.10;99.90;;;;;;5068509;23;20678;-74
2022/10/27 02:22:54;;;;;;;2.80;1.07;;;16.10;99.90;;;;;;5045578;28;20591;-74
2022/10/27 02:25:27;;;;;;;2.57;1.03;;;16.10;99.90;;;;;;5040732;28;20583;-74
2022/10/27 02:27:58;;;;;;;3.97;1.10;;;16.00;99.90;;;;;;5065631;28;21404;-75
2022/10/27 02:30:24;;;;;;;5.30;1.27;;;16.00;99.90;;;;;;5051066;28;20689;-74
2022/10/27 02:32:50;;;;;;;3.93;1.10;;;16.00;99.90;;;;;;5050391;28;20568;-75
2022/10/27 02:35:16;;;;;;;3.20;1.30;;;16.00;99.90;;;;;;5034176;28;20161;-75
2022/10/27 02:37:45;;;;;;;3.40;1.10;;;16.00;99.90;;;;;;5054265;28;20579;-77
2022/10/27 02:40:11;;;;;;;4.60;1.30;;;15.90;99.90;;;;;;5061374;28;21157;-76
2022/10/27 02:42:36;;;;;;;3.30;1.30;;;15.90;99.90;;;;;;5056324;28;20570;-77
2022/10/27 02:45:03;;;;;;;2.67;1.00;;;15.90;99.90;;;;;;5053579;28;20572;-76
2022/10/27 02:47:29;;;;;;;3.00;1.27;;;15.80;99.90;;;;;;5055736;28;20570;-76
2022/10/27 02:49:56;;;;;;;7.17;1.30;;;15.80;99.90;;;;;;5052994;28;20619;-76
2022/10/27 02:52:21;;;;;;;4.43;1.27;;;15.80;99.90;;;;;;5053017;28;20609;-77
2022/10/27 02:54:47;;;;;;;5.03;1.80;;;15.70;99.90;;;;;;5058894;28;20196;-76
2022/10/27 02:57:15;;;;;;;2.37;1.00;;;15.70;99.90;;;;;;5053521;28;20536;-75
2022/10/27 02:59:41;;;;;;;3.00;1.23;;;15.70;99.90;;;;;;5036260;28;20212;-76
2022/10/27 03:02:07;;;;;;;2.13;0.97;;;15.70;99.90;;;;;;5052006;28;20674;-76
2022/10/27 03:04:32;;;;;;;5.60;1.20;;;15.70;99.90;;;;;;5051771;28;20570;-76
2022/10/27 03:06:58;;;;;;;4.40;1.10;;;15.70;99.90;;;;;;5053343;28;20841;-74
2022/10/27 03:09:24;;;;;;;2.83;1.00;;;15.70;99.90;;;;;;5051564;28;20185;-73
2022/10/27 03:11:49;;;;;;;5.00;1.50;;;15.70;99.90;;;;;;5051502;28;20169;-73
2022/10/27 03:14:15;;;;;;;3.40;1.10;;;15.60;99.90;;;;;;5051225;28;20176;-73
2022/10/27 03:16:41;;;;;;;2.23;1.07;;;15.60;99.90;;;;;;5051656;28;20180;-73
2022/10/27 03:19:06;;;;;;;2.63;1.10;;;15.60;99.90;;;;;;5051382;28;20197;-73
2022/10/27 03:21:32;;;;;;;3.40;1.23;;;15.60;99.90;;;;;;5050572;28;20223;-73
2022/10/27 03:23:58;;;;;;;4.97;1.10;;;15.60;99.90;;;;;;5050022;28;20169;-73
2022/10/27 03:26:24;;;;;;;2.50;1.00;;;15.60;99.90;;;;;;5051395;28;20288;-73
2022/10/27 03:28:50;;;;;;;5.20;1.40;;;15.60;99.90;;;;;;5051591;28;20658;-73
2022/10/27 03:31:15;;;;;;;2.00;0.90;;;15.60;99.90;;;;;;5056002;28;20656;-73
2022/10/27 03:33:41;;;;;;;2.40;1.17;;;15.60;99.90;;;;;;5051067;28;20177;-73
2022/10/27 03:36:07;;;;;;;3.27;1.47;;;15.60;99.90;;;;;;5033467;28;20177;-74
2022/10/27 03:38:33;;;;;;;3.63;1.03;;;15.60;99.90;;;;;;5051210;28;20161;-74
2022/10/27 03:40:59;;;;;;;3.63;1.40;;;15.60;99.90;;;;;;5051159;28;20579;-73
2022/10/27 03:43:24;;;;;;;2.80;1.63;;;15.60;99.90;;;;;;5051077;28;20173;-74
2022/10/27 03:45:50;;;;;;;3.93;1.20;;;15.60;99.90;;;;;;5049998;28;20307;-74
2022/10/27 03:48:16;;;;;;;2.13;1.00;;;15.60;99.90;;;;;;5051017;28;20165;-74
2022/10/27 03:50:47;;;;;;;2.53;1.30;;;15.60;99.90;;;;;;5051153;28;20193;-73
2022/10/27 03:53:14;;;;;;;5.63;1.40;;;15.60;99.90;;;;;;5032999;28;20576;-73
2022/10/27 03:55:40;;;;;;;3.63;1.70;;;15.50;99.90;;;;;;5051260;28;21051;-73
2022/10/27 03:58:10;;;;;;;3.33;1.37;;;15.50;99.90;;;;;;5051562;28;20575;-73
2022/10/27 04:00:36;;;;;;;3.30;1.30;;;15.50;99.90;;;;;;5051354;28;20992;-73
2022/10/27 04:03:02;;;;;;;5.00;1.10;;;15.50;99.90;;;;;;5032543;28;20666;-73
2022/10/27 04:05:27;;;;;;;3.30;1.33;;;15.50;99.90;;;;;;5033784;28;20174;-75
2022/10/27 04:07:53;;;;;;;2.13;1.10;;;15.50;99.90;;;;;;5013388;28;20209;-75
2022/10/27 04:10:19;;;;;;;4.90;1.30;;;15.50;99.90;;;;;;5031338;28;20243;-75
2022/10/27 04:12:55;;;;;;;2.47;1.20;;;15.50;99.90;;;;;;5035406;28;20169;-74
2022/10/27 04:15:23;;;;;;;4.50;1.30;;;15.50;99.90;;;;;;5030263;28;20174;-73
2022/10/27 04:17:52;;;;;;;5.63;1.20;;;15.40;99.90;;;;;;5013515;28;20572;-73
2022/10/27 04:20:18;;;;;;;2.60;1.30;;;15.40;99.90;;;;;;5030988;28;21027;-74
2022/10/27 04:22:44;;;;;;;2.20;1.23;;;15.40;99.90;;;;;;5013112;28;20604;-74
2022/10/27 04:25:10;;;;;;;2.40;1.27;;;15.40;99.90;;;;;;5013172;28;20180;-73
2022/10/27 04:27:36;;;;;;;2.27;0.83;;;15.40;99.90;;;;;;5013045;28;20213;-73
2022/10/27 04:30:02;;;;;;;3.40;1.30;;;15.40;99.90;;;;;;5030731;28;20595;-73
2022/10/27 04:32:27;;;;;;;2.87;1.40;;;15.40;99.90;;;;;;5031973;28;20591;-73
2022/10/27 04:34:53;;;;;;;4.63;1.33;;;15.40;99.90;;;;;;5034466;28;20583;-74
2022/10/27 04:37:19;;;;;;;3.20;1.57;;;15.40;99.90;;;;;;5034752;28;20178;-77
2022/10/27 04:39:44;;;;;;;5.77;1.30;;;15.40;99.90;;;;;;5038543;28;20198;-77
2022/10/27 04:42:10;;;;;;;2.97;1.73;;;15.30;99.90;;;;;;5020948;28;20177;-77
2022/10/27 04:44:36;;;;;;;3.90;1.30;;;15.30;99.90;;;;;;5040322;28;20170;-78
2022/10/27 04:47:02;;;;;;;2.57;1.57;;;15.30;99.90;;;;;;5036353;28;20730;-72
2022/10/27 04:49:28;;;;;;;2.80;1.30;;;15.30;99.90;;;;;;5034171;28;21209;-71
2022/10/27 04:51:53;;;;;;;3.70;1.70;;;15.30;99.90;;;;;;5035740;28;20169;-73
2022/10/27 04:54:19;;;;;;;5.03;1.20;;;15.30;99.90;;;;;;5033747;28;20254;-72
2022/10/27 04:56:45;;;;;;;3.23;1.50;;;15.30;99.90;;;;;;5034374;28;20228;-72
2022/10/27 04:59:11;;;;;;;3.80;1.67;;;15.30;99.90;;;;;;5032719;28;20205;-72
2022/10/27 05:01:38;;;;;;;3.57;1.73;;;15.30;99.90;;;;;;5045505;28;20170;-72
2022/10/27 05:04:04;;;;;;;5.40;1.80;;;15.30;99.90;;;;;;5044323;28;20605;-73
2022/10/27 05:06:30;;;;;;;2.53;1.40;;;15.30;99.90;;;;;;5044117;28;20624;-73
2022/10/27 05:08:56;;;;;;;2.50;1.03;;;15.20;99.90;;;;;;5034142;28;20688;-73
2022/10/27 05:11:21;;;;;;;3.10;1.43;;;15.20;99.90;;;;;;5039225;28;20665;-73
2022/10/27 05:13:50;;;;;;;3.00;1.40;;;15.20;99.90;;;;;;5033743;28;20556;-73
2022/10/27 05:16:17;;;;;;;3.80;1.20;;;15.20;99.90;;;;;;5034143;28;20208;-74
2022/10/27 05:18:43;;;;;;;3.47;1.13;;;15.20;99.90;;;;;;5034280;28;20608;-73
2022/10/27 05:21:09;;;;;;;2.57;0.97;;;15.20;99.90;;;;;;5049175;28;20560;-73
2022/10/27 05:23:34;;;;;;;5.37;1.83;;;15.20;99.90;;;;;;5033560;28;20626;-73
2022/10/27 05:26:00;;;;;;;10.93;1.60;;;15.10;99.90;;;;;;5033629;28;20228;-72
2022/10/27 05:28:26;;;;;;;2.73;1.20;;;15.10;99.90;;;;;;5049903;28;20192;-73
2022/10/27 05:30:56;;;;;;;7.40;1.07;;;15.20;99.90;;;;;;5035473;28;20669;-71
2022/10/27 05:33:22;;;;;;;3.73;1.30;;;15.10;99.90;;;;;;5033154;28;20174;-71
2022/10/27 05:35:49;;;;;;;4.27;1.20;;;15.10;99.90;;;;;;5034022;28;20563;-78
2022/10/27 05:38:16;;;;;;;2.70;1.10;;;15.10;99.90;;;;;;5049779;28;20170;-79
2022/10/27 05:40:41;;;;;;;4.00;1.10;;;15.10;99.90;;;;;;5049405;28;20604;-78
2022/10/27 05:43:09;;;;;;;7.07;1.73;;;15.10;99.90;;;;;;5049299;28;20561;-78
2022/10/27 05:45:35;;;;;;;5.50;1.73;;;15.10;99.90;;;;;;5033142;28;20712;-78
2022/10/27 05:48:06;;;;;;;3.63;1.33;;;15.10;99.90;;;;;;5032479;28;20634;-77
2022/10/27 05:50:33;;;;;;;4.10;1.60;;;15.10;99.90;;;;;;5034559;28;20644;-77
2022/10/27 05:52:59;;;;;;;3.30;1.63;;;15.10;99.90;;;;;;5034182;28;20561;-77
2022/10/27 05:55:25;;;;;;;3.20;1.53;;;15.10;99.90;;;;;;5051613;28;20549;-79
2022/10/27 05:57:53;;;;;;;2.37;1.10;;;15.10;99.90;;;;;;5037726;28;20596;-79
2022/10/27 06:00:19;;;;;;;6.43;1.87;;;15.10;99.90;;;;;;5037883;28;20631;-79
2022/10/27 06:02:44;;;;;;;4.50;1.37;;;15.10;99.90;;;;;;5044887;28;20614;-78
2022/10/27 06:05:13;;;;;;;9.47;2.03;;;15.10;99.90;;;;;;5042927;28;20581;-79
2022/10/27 06:07:39;;;;;;;5.33;1.87;;;15.10;99.90;;;;;;5041889;28;20197;-79
2022/10/27 06:10:05;;;;;;;5.60;1.67;;;15.20;99.90;;;;;;5043905;28;20588;-80
2022/10/27 06:12:31;;;;;;;6.77;1.83;;;15.20;99.90;;;;;;5038499;28;20200;-79
2022/10/27 06:14:57;;;;;;;4.50;1.50;;;15.20;99.90;;;;;;5037278;28;20713;-80
2022/10/27 06:17:23;;;;;;;5.80;2.27;;;15.10;99.90;;;;;;5033346;28;20212;-81
2022/10/27 06:19:49;;;;;;;4.03;1.40;;;15.20;99.90;;;;;;5015203;28;20206;-80
2022/10/27 06:22:14;;;;;;;3.93;1.50;;;15.20;99.90;;;;;;5022266;28;20241;-79
2022/10/27 06:24:40;;;;;;;4.47;1.60;;;15.20;99.90;;;;;;5033555;28;20177;-79
2022/10/27 06:27:06;;;;;;;3.13;1.60;;;15.30;99.90;;;;;;5034471;28;20201;-79
2022/10/27 06:29:31;;;;;;;1.93;1.20;;;15.30;99.90;;;;;;5038129;28;20205;-79
2022/10/27 06:31:57;;;;;;;5.67;2.50;;;15.30;99.90;;;;;;5027817;28;20222;-79
2022/10/27 06:34:23;;;;;;;4.03;1.43;;;15.30;99.90;;;;;;5052200;28;20180;-79
2022/10/27 06:36:48;;;;;;;3.27;1.60;;;15.30;99.90;;;;;;5059728;28;20165;-78
2022/10/27 06:39:14;;;;;;;5.03;2.43;;;15.30;99.90;;;;;;5056007;28;20283;-79
2022/10/27 06:41:40;;;;;;;2.50;1.53;;;15.30;99.90;;;;;;5053053;28;20173;-80
2022/10/27 06:44:06;;;;;;;4.93;1.80;;;15.40;99.90;;;;;;5057999;28;20639;-80
2022/10/27 06:46:33;;;;;;;2.43;1.60;;;15.40;99.90;;;;;;5054679;28;20193;-79
2022/10/27 06:49:00;;;;;;;4.93;1.40;;;15.40;99.90;;;;;;5036191;28;20272;-77
2022/10/27 06:51:26;;;;;;;3.50;2.10;;;15.50;99.90;;;;;;5015337;28;20590;-77
2022/10/27 06:53:52;;;;;;;5.50;1.37;;;15.50;99.90;;;;;;5036546;28;20640;-78
2022/10/27 06:56:18;;;;;;;3.30;1.50;;;15.50;99.90;;;;;;5035443;28;20684;-78
2022/10/27 06:58:46;;;;;;;2.93;1.83;;;15.50;99.90;;;;;;5000374;28;20631;-77
2022/10/27 07:01:12;;;;;;;5.43;2.00;;;15.60;99.90;;;;;;5037747;28;20572;-78
2022/10/27 07:03:38;;;;;;;2.53;1.50;;;15.50;99.90;;;;;;5038329;28;21158;-77
2022/10/27 07:06:04;;;;;;;4.37;1.80;;;15.60;99.90;;;;;;5018119;28;20657;-78
2022/10/27 07:08:30;;;;;;;4.70;1.87;;;15.60;99.90;;;;;;5026670;28;20546;-77
2022/10/27 07:10:56;;;;;;;4.70;1.40;;;15.70;99.90;;;;;;5030319;28;20597;-77
2022/10/27 07:13:21;;;;;;;4.00;1.60;;;15.70;99.90;;;;;;5036671;28;20604;-76
2022/10/27 07:15:47;;;;;;;5.23;1.60;;;15.80;99.90;;;;;;5048151;28;20605;-77
2022/10/27 07:18:13;;;;;;;4.17;1.50;;;15.70;99.90;;;;;;5054100;28;20176;-77
2022/10/27 07:20:39;;;;;;;3.93;1.40;;;15.80;99.90;;;;;;5043071;28;20632;-76
2022/10/27 07:23:06;;;;;;;2.30;1.30;;;15.80;99.90;;;;;;5035186;28;20627;-77
2022/10/27 07:25:33;;;;;;;4.13;1.40;;;15.80;99.90;;;;;;5030995;28;20692;-78
2022/10/27 07:28:01;;;;;;;3.23;1.40;;;15.90;99.90;;;;;;5025453;28;21034;-78
2022/10/27 07:30:29;;;;;;;3.33;1.57;;;16.00;99.90;;;;;;5036616;28;20627;-77
2022/10/27 07:32:56;;;;;;;5.50;2.37;;;16.00;99.90;;;;;;5039826;28;20919;-77
2022/10/27 07:35:22;;;;;;;4.93;1.47;;;16.10;99.90;;;;;;5032505;28;20588;-78
2022/10/27 07:37:49;;;;;;;2.30;1.37;;;16.10;99.90;;;;;;5053415;28;20576;-78
2022/10/27 07:40:16;;;;;;;6.00;1.57;;;16.20;99.90;;;;;;5036274;28;20613;-78
2022/10/27 07:42:53;;;;;;;2.83;1.33;;;16.20;99.90;;;;;;5038141;28;20602;-77
2022/10/27 07:45:20;;;;;;;3.37;1.77;;;16.30;99.90;;;;;;5028062;28;20591;-77
2022/10/27 07:47:51;;;;;;;3.60;1.50;;;16.30;99.90;;;;;;5015358;28;20694;-78
2022/10/27 07:50:19;;;;;;;4.13;1.37;;;16.40;99.90;;;;;;4994795;28;20593;-77
2022/10/27 07:52:49;;;;;;;4.70;1.30;;;16.50;99.90;;;;;;5010250;28;20664;-77
2022/10/27 07:55:18;;;;;;;4.03;1.58;;;16.50;99.90;;;;;;5011383;28;20703;-77
2022/10/27 07:57:44;;;;;;;3.10;1.13;;;16.60;99.90;;;;;;5018117;28;20588;-77
2022/10/27 08:00:13;;;;;;;4.90;1.27;;;16.70;99.90;;;;;;5019165;28;20590;-78
2022/10/27 08:02:40;;;;;;;2.87;1.40;;;16.80;99.90;;;;;;5011993;28;20566;-77
2022/10/27 08:05:07;;;;;;;3.87;1.23;;;16.90;99.90;;;;;;5016564;28;20566;-78
2022/10/27 08:07:33;;;;;;;4.10;2.00;;;16.90;99.90;;;;;;5018304;28;20656;-77
2022/10/27 08:09:59;;;;;;;2.70;1.20;;;17.00;99.90;;;;;;5019117;28;20664;-76
2022/10/27 08:12:25;;;;;;;2.77;1.30;;;17.10;99.90;;;;;;5029183;28;20611;-77
2022/10/27 08:14:51;;;;;;;3.90;1.50;;;17.10;99.90;;;;;;5042601;28;20568;-76
2022/10/27 08:17:17;;;;;;;4.40;1.40;;;17.20;99.90;;;;;;5049557;28;20675;-78
2022/10/27 08:19:43;;;;;;;2.77;1.23;;;17.30;99.90;;;;;;5023084;28;20793;-77
2022/10/27 08:22:08;;;;;;;3.93;1.13;;;17.40;99.90;;;;;;5027002;28;20181;-78
2022/10/27 08:24:34;;;;;;;3.20;1.10;;;17.50;99.90;;;;;;5032495;28;20679;-77
2022/10/27 08:27:00;;;;;;;3.33;0.90;;;17.70;99.90;;;;;;5040535;28;20208;-77
2022/10/27 08:29:26;;;;;;;2.93;1.13;;;17.80;99.90;;;;;;5056753;28;20550;-76
2022/10/27 08:31:53;;;;;;;1.80;0.90;;;18.10;99.90;;;;;;5064823;28;20563;-77
2022/10/27 08:34:19;;;;;;;2.80;0.80;;;18.60;99.90;;;;;;5062336;28;20165;-78
2022/10/27 08:36:45;;;;;;;2.63;0.90;;;19.30;99.90;;;;;;5063916;28;20631;-77
2022/10/27 08:39:11;;;;;;;3.10;0.80;;;20.10;99.90;;;;;;5053321;23;21133;-75
2022/10/27 08:42:06;;;;;;;4.00;1.80;;;20.80;99.90;;;;;;5059232;28;20977;-75
2022/10/27 08:44:39;;;;;;;2.23;1.00;;;21.40;99.90;;;;;;5034694;28;20622;-75
2022/10/27 08:47:12;;;;;;;2.67;0.80;;;22.20;99.90;;;;;;5043788;28;20644;-75
2022/10/27 08:49:50;;;;;;;4.60;0.93;;;23.00;99.90;;;;;;5061950;28;20645;-75
2022/10/27 08:52:16;;;;;;;4.40;0.80;;;23.60;99.90;;;;;;5053197;28;21192;-75
2022/10/27 08:54:47;;;;;;;1.97;0.80;;;24.10;99.90;;;;;;5053994;28;20568;-76
2022/10/27 08:57:23;;;;;;;2.37;0.90;;;24.60;99.90;;;;;;5053967;28;20234;-76
2022/10/27 08:59:54;;;;;;;2.07;0.80;;;25.00;99.90;;;;;;5053636;28;21054;-75
2022/10/27 09:02:35;;;;;;;2.03;0.90;;;25.50;99.90;;;;;;5052079;28;20576;-76
2022/10/27 09:05:26;;;;;;;1.93;0.90;;;25.70;99.90;;;;;;5053772;28;20632;-76
2022/10/27 09:08:16;;;;;;;4.00;1.00;;;26.10;99.90;;;;;;5053495;28;20619;-76
2022/10/27 09:11:07;;;;;;;2.80;0.90;;;26.40;99.90;;;;;;5053243;28;20939;-76
2022/10/27 09:14:06;;;;;;;7.30;0.93;;;26.60;99.90;;;;;;5035331;28;20584;-77
2022/10/27 09:16:43;;;;;;;3.77;0.80;;;26.50;99.90;;;;;;5030652;28;21027;-76
2022/10/27 09:19:16;;;;;;;3.00;0.80;;;26.40;99.90;;;;;;5052099;28;20954;-75
2022/10/27 09:21:42;;;;;;;2.53;0.80;;;26.40;99.90;;;;;;5052941;28;20934;-75
2022/10/27 09:24:16;;;;;;;4.17;1.00;;;26.60;99.90;;;;;;5046025;28;20999;-75
2022/10/27 09:26:44;;;;;;;4.47;0.80;;;26.70;99.90;;;;;;5052264;28;21047;-74
2022/10/27 09:29:20;;;;;;;3.30;0.80;;;26.70;99.90;;;;;;5050815;28;20639;-74
2022/10/27 09:31:54;;;;;;;3.87;1.13;;;26.70;99.90;;;;;;5054320;28;20672;-74
2022/10/27 09:34:36;;;;;;;3.70;0.90;;;26.40;99.90;;;;;;5052785;28;21154;-74
2022/10/27 09:37:16;;;;;;;4.77;0.80;;;26.10;99.90;;;;;;5051927;28;20624;-74
2022/10/27 09:39:47;;;;;;;6.33;1.00;;;25.90;99.70;;;;;;5051792;28;20619;-76
2022/10/27 09:42:14;;;;;;;2.27;1.00;;;25.90;99.90;;;;;;5053020;28;21214;-77
2022/10/27 09:44:54;;;;;;;6.43;0.90;;;25.70;99.90;;;;;;5034932;28;20586;-77
2022/10/27 09:47:22;;;;;;;6.30;1.17;;;25.80;99.90;;;;;;5053005;28;20627;-77
2022/10/27 09:49:49;;;;;;;3.40;1.17;;;25.70;99.90;;;;;;5052566;28;20595;-77
2022/10/27 09:52:22;;;;;;;2.83;1.00;;;25.70;99.90;;;;;;5052508;28;21202;-77
2022/10/27 09:54:56;;;;;;;3.90;1.53;;;25.90;99.90;;;;;;5052634;28;21162;-77
2022/10/27 09:57:30;;;;;;;3.70;1.10;;;26.00;99.90;;;;;;5052734;28;20962;-77
2022/10/27 10:00:06;;;;;;;4.83;1.00;;;25.90;99.90;;;;;;5052482;28;20612;-76
2022/10/27 10:02:40;;;;;;;3.27;1.30;;;25.90;99.90;;;;;;5052142;28;20695;-76
2022/10/27 10:05:31;;;;;;;4.80;1.43;;;25.80;99.90;;;;;;5052649;28;20669;-76
2022/10/27 10:08:24;;;;;;;5.97;1.83;;;25.60;99.90;;;;;;5052633;28;20626;-76
2022/10/27 10:11:20;;;;;;;4.20;2.00;;;25.50;99.90;;;;;;5052129;28;20576;-76
2022/10/27 10:14:00;;;;;;;3.70;1.47;;;25.40;99.90;;;;;;5050948;28;20561;-76
2022/10/27 10:16:28;;;;;;;8.07;1.20;;;25.20;99.90;;;;;;5052498;28;20986;-76
2022/10/27 10:19:19;;;;;;;3.10;1.10;;;25.30;99.90;;;;;;5052014;28;20934;-76
2022/10/27 10:21:52;;;;;;;5.83;1.33;;;25.30;99.90;;;;;;5051035;28;20602;-76
2022/10/27 10:24:24;;;;;;;7.73;3.10;;;25.50;99.90;;;;;;5056939;28;20615;-77
2022/10/27 10:26:54;;;;;;;4.67;2.30;;;25.50;99.90;;;;;;5048421;28;20631;-76
2022/10/27 10:29:30;;;;;;;5.00;1.10;;;25.50;99.90;;;;;;5059811;28;20621;-75
2022/10/27 10:32:12;;;;;;;2.57;1.00;;;25.50;99.90;;;;;;5071862;28;20627;-75
2022/10/27 10:34:41;;;;;;;3.20;1.23;;;25.60;99.90;;;;;;5070023;28;20969;-75
2022/10/27 10:37:32;;;;;;;3.37;1.00;;;25.80;99.90;;;;;;5067207;28;20640;-77
2022/10/27 10:40:13;;;;;;;3.23;1.13;;;25.70;99.90;;;;;;5059543;28;21020;-78
2022/10/27 10:42:58;;;;;;;3.47;1.27;;;25.60;99.90;;;;;;5051884;28;20662;-78
2022/10/27 10:45:26;;;;;;;2.43;1.17;;;25.50;99.70;;;;;;5056034;28;20570;-78
2022/10/27 10:48:03;;;;;;;2.70;1.70;;;25.40;99.90;;;;;;5051039;28;21017;-77
2022/10/27 10:50:30;;;;;;;4.53;1.70;;;25.40;99.90;;;;;;5051914;28;20607;-78
2022/10/27 10:52:58;;;;;;;3.10;1.00;;;25.40;99.90;;;;;;5052300;28;20629;-75
2022/10/27 10:55:29;;;;;;;4.20;1.40;;;25.50;99.90;;;;;;5033880;28;20659;-76
2022/10/27 10:57:56;;;;;;;4.63;1.73;;;25.40;99.90;;;;;;5050734;28;20568;-76
2022/10/27 11:00:23;;;;;;;3.17;1.03;;;25.40;99.90;;;;;;5052121;28;20617;-78
2022/10/27 11:03:00;;;;;;;4.17;1.40;;;25.30;99.90;;;;;;5051554;28;20580;-75
2022/10/27 11:05:34;;;;;;;9.90;2.70;;;25.30;99.90;;;;;;5051679;28;20564;-76
2022/10/27 11:08:02;;;;;;;3.50;1.60;;;25.30;99.90;;;;;;5052062;28;20611;-76
2022/10/27 11:10:40;;;;;;;7.43;1.30;;;25.20;99.90;;;;;;5034434;28;20567;-75
2022/10/27 11:13:19;;;;;;;6.80;1.50;;;25.10;99.90;;;;;;5051585;28;20610;-76
2022/10/27 11:15:51;;;;;;;2.83;1.07;;;24.90;99.90;;;;;;5051684;28;20570;-76
2022/10/27 11:18:23;;;;;;;6.30;1.00;;;24.70;99.90;;;;;;5052556;28;21134;-77
2022/10/27 11:20:55;;;;;;;4.20;1.33;;;24.50;99.90;;;;;;5054233;28;20624;-77
2022/10/27 11:23:44;;;;;;;2.17;0.87;;;24.30;99.90;;;;;;5036663;28;20576;-77
2022/10/27 11:26:12;;;;;;;4.00;1.50;;;24.20;99.90;;;;;;5035682;28;20575;-77
2022/10/27 11:29:15;;;;;;;4.33;1.50;;;24.00;99.90;;;;;;5052033;28;20601;-77
2022/10/27 11:31:58;;;;;;;7.40;1.60;;;23.80;99.90;;;;;;5054150;28;20556;-77
2022/10/27 11:34:48;;;;;;;4.00;1.50;;;23.70;99.90;;;;;;5055766;28;20572;-76
2022/10/27 11:37:22;;;;;;;3.20;1.10;;;23.70;99.90;;;;;;5043030;28;20951;-77
2022/10/27 11:40:32;;;;;;;3.20;1.27;;;23.70;99.90;;;;;;5056072;28;20724;-76
2022/10/27 11:43:21;;;;;;;2.20;1.00;;;23.60;99.90;;;;;;5005477;28;20598;-76
2022/10/27 11:45:54;;;;;;;4.30;1.67;;;23.60;99.90;;;;;;4997354;28;20616;-76
2022/10/27 11:48:41;;;;;;;2.70;1.07;;;23.50;99.90;;;;;;5050416;28;20679;-76
2022/10/27 11:51:14;;;;;;;4.60;1.40;;;23.50;99.90;;;;;;5071956;28;20679;-77
2022/10/27 11:53:40;;;;;;;3.17;0.90;;;23.50;99.90;;;;;;5061967;28;20578;-76
2022/10/27 11:56:38;;;;;;;4.73;1.30;;;23.40;99.90;;;;;;5069541;28;21178;-76
2022/10/27 11:59:20;;;;;;;4.67;1.87;;;23.30;99.90;;;;;;5052017;28;20192;-76
2022/10/27 12:02:04;;;;;;;3.30;1.10;;;23.30;99.90;;;;;;5060188;28;20945;-76
2022/10/27 12:04:55;;;;;;;3.50;1.40;;;23.20;99.90;;;;;;5061388;28;20580;-77
2022/10/27 12:07:57;;;;;;;5.13;1.60;;;23.30;99.90;;;;;;5070025;28;20632;-78
2022/10/27 12:10:43;;;;;;;2.87;1.20;;;23.20;99.90;;;;;;5062062;28;21145;-77
2022/10/27 12:13:21;;;;;;;7.20;1.50;;;23.30;99.90;;;;;;5044110;28;20587;-77
2022/10/27 12:16:03;;;;;;;6.90;1.50;;;23.40;99.90;;;;;;5037024;28;20580;-78
2022/10/27 12:18:52;;;;;;;5.10;1.57;;;23.30;99.90;;;;;;5052094;28;20959;-78
2022/10/27 12:21:41;;;;;;;3.37;1.20;;;23.30;99.90;;;;;;5010527;28;20592;-77
2022/10/27 12:24:36;;;;;;;6.03;1.93;;;23.40;99.90;;;;;;5053099;28;20603;-76
2022/10/27 12:27:24;;;;;;;3.90;1.60;;;23.40;99.90;;;;;;5049048;28;20682;-77
2022/10/27 12:29:55;;;;;;;4.17;1.40;;;23.40;99.90;;;;;;5045056;28;21011;-77
2022/10/27 12:32:27;;;;;;;3.27;1.40;;;23.50;99.90;;;;;;5053836;28;20578;-77
2022/10/27 12:35:02;;;;;;;2.77;1.60;;;23.60;99.90;;;;;;5053919;28;20564;-77
2022/10/27 12:37:41;;;;;;;3.07;1.20;;;23.60;99.90;;;;;;5057258;28;20602;-76
2022/10/27 12:40:39;;;;;;;3.50;1.17;;;23.70;99.90;;;;;;5072246;28;20693;-77
2022/10/27 12:43:30;;;;;;;4.77;1.00;;;23.70;99.90;;;;;;5010887;28;20596;-77
2022/10/27 12:46:14;;;;;;;2.80;1.30;;;23.70;99.90;;;;;;5038308;28;20584;-76
2022/10/27 12:49:05;;;;;;;3.97;1.30;;;23.70;99.90;;;;;;5054503;28;20614;-77
2022/10/27 12:51:41;;;;;;;5.17;2.07;;;23.90;99.90;;;;;;5055277;28;20579;-77
2022/10/27 12:54:26;;;;;;;3.53;1.07;;;23.90;99.90;;;;;;5055024;28;20916;-77
2022/10/27 12:57:05;;;;;;;3.40;1.13;;;24.00;99.90;;;;;;5019939;28;21150;-78
2022/10/27 12:59:45;;;;;;;3.50;1.60;;;24.20;99.90;;;;;;5055031;28;20634;-77
2022/10/27 13:02:12;;;;;;;6.10;1.40;;;24.30;99.90;;;;;;5059480;28;20570;-77
2022/10/27 13:04:49;;;;;;;5.37;1.33;;;24.30;99.90;;;;;;5059817;28;20667;-77
2022/10/27 13:07:33;;;;;;;3.77;1.00;;;24.40;99.90;;;;;;5057191;28;21049;-77
2022/10/27 13:10:21;;;;;;;4.80;1.40;;;24.50;99.90;;;;;;5057258;28;20598;-77
2022/10/27 13:13:03;;;;;;;3.97;1.37;;;24.50;99.90;;;;;;5059768;28;20563;-77